Date,TemperatureHighF,TemperatureAvgF,TemperatureLowF,DewpointHighF,DewpointAvgF,DewpointLowF,HumidityHigh,HumidityAvg,HumidityLow,PressureMaxIn,PressureMinIn,WindSpeedMaxMPH,WindSpeedAvgMPH,GustSpeedMaxMPH,PrecipitationSumIn
2013-1-1,20.0,1.3,-20.0,18.0,-5.1,-27.0,86,73,65,0.00,40.00,9,3,12,0.00
2013-1-2,22.0,19.6,16.0,18.0,15.7,10.0,90,84,76,0.00,40.00,10,5,17,0.00
2013-1-3,17.0,11.8,8.0,12.0,5.2,0.0,85,74,56,0.00,40.00,9,4,14,0.00
2013-1-4,32.0,18.5,3.0,16.0,10.2,-4.0,83,70,50,0.00,40.00,9,3,14,0.00
2013-1-5,21.0,11.0,0.0,16.0,5.5,-6.0,86,78,63,0.00,40.00,6,1,9,0.00
2013-1-6,22.0,14.5,8.0,14.0,7.9,3.0,87,74,54,0.00,40.00,9,3,16,0.00
2013-1-7,39.0,26.0,11.0,25.0,18.3,7.0,90,74,52,0.00,40.00,11,5,16,0.00
2013-1-8,34.0,20.0,1.0,27.0,15.3,-4.0,89,81,70,0.00,40.00,14,4,19,0.00
2013-1-9,34.0,28.6,18.0,27.0,19.8,12.0,84,70,53,0.00,40.00,13,6,27,0.00
2013-1-10,41.0,33.8,26.0,32.0,24.5,19.0,96,71,43,0.00,40.00,13,7,21,0.00
2013-1-11,37.0,35.3,33.0,36.0,35.0,32.0,99,98,96,0.00,40.00,10,5,14,0.00
2013-1-12,35.0,12.4,1.0,34.0,4.8,-8.0,98,71,58,0.00,40.00,17,8,27,0.00
2013-1-13,8.0,2.6,-3.0,0.0,-5.5,-9.0,78,68,57,0.00,40.00,6,2,11,0.00
2013-1-14,12.0,5.9,-2.0,3.0,-2.3,-8.0,79,69,54,0.00,40.00,7,3,11,0.00
2013-1-15,24.0,15.0,3.0,14.0,6.3,-2.0,81,69,50,0.00,40.00,12,6,18,0.00
2013-1-16,33.0,23.9,6.0,30.0,11.5,-9.0,91,61,30,0.00,40.00,16,5,24,0.00
2013-1-17,19.0,10.0,3.0,7.0,-2.1,-9.0,76,58,49,0.00,40.00,7,2,11,0.00
2013-1-18,39.0,23.7,14.0,27.0,17.7,7.0,90,78,57,0.00,40.00,6,2,12,0.00
2013-1-19,37.0,18.2,-1.0,28.0,11.4,-11.0,93,75,51,0.00,40.00,13,4,27,0.00
2013-1-20,5.0,-0.6,-6.0,-4.0,-11.5,-17.0,69,59,49,0.00,40.00,9,4,16,0.00
2013-1-21,-5.0,-9.6,-15.0,-17.0,-21.9,-26.0,65,54,44,0.00,40.00,8,4,19,0.00
2013-1-22,2.0,-7.2,-18.0,-8.0,-17.4,-26.0,67,60,47,0.00,40.00,6,3,9,0.00
2013-1-23,14.0,3.3,-9.0,1.0,-8.8,-22.0,75,57,38,0.00,40.00,11,4,23,0.00
2013-1-24,11.0,-1.5,-10.0,0.0,-14.0,-22.0,58,54,50,0.00,40.00,10,4,14,0.00
2013-1-25,17.0,10.2,-1.0,9.0,-0.8,-9.0,73,61,49,0.00,40.00,13,6,22,0.00
2013-1-26,21.0,7.7,-7.0,10.0,-1.9,-15.0,74,64,52,0.00,40.00,9,2,14,0.00
2013-1-27,33.0,25.3,18.0,28.0,18.7,10.0,95,76,58,0.00,40.00,6,2,10,0.00
2013-1-28,35.0,30.6,26.0,34.0,29.6,25.0,98,95,92,0.00,40.00,7,2,12,0.00
2013-1-29,35.0,30.9,25.0,30.0,26.8,18.0,98,86,70,0.00,40.00,8,3,19,0.00
2013-1-30,25.0,14.8,5.0,18.0,7.0,-4.0,81,70,62,0.00,40.00,10,5,22,0.00
2013-1-31,5.0,-2.9,-11.0,-4.0,-15.0,-22.0,67,55,49,0.00,40.00,9,5,19,0.00
2013-2-1,0.0,-7.5,-18.0,-8.0,-17.3,-26.0,74,62,45,0.00,40.00,8,3,13,0.00
2013-2-2,8.0,3.0,-5.0,1.0,-5.4,-11.0,79,69,55,0.00,40.00,9,2,13,0.00
2013-2-3,13.0,8.7,0.0,3.0,-0.9,-6.0,77,65,49,0.00,40.00,6,2,16,0.00
2013-2-4,14.0,7.6,-3.0,9.0,-3.0,-11.0,83,61,44,0.00,40.00,12,4,17,0.00
2013-2-5,27.0,17.5,-1.0,23.0,10.0,-8.0,89,73,48,0.00,40.00,10,3,17,0.00
2013-2-6,22.0,15.6,4.0,18.0,10.8,-2.0,84,80,74,0.00,40.00,9,3,18,0.00
2013-2-7,28.0,24.0,12.0,21.0,18.5,7.0,91,80,66,0.00,40.00,14,7,19,0.00
2013-2-8,27.0,14.2,-4.0,18.0,7.3,-9.0,86,74,53,0.00,40.00,12,3,17,0.00
2013-2-9,30.0,27.4,22.0,28.0,24.2,18.0,96,88,83,0.00,40.00,15,8,24,0.00
2013-2-10,29.0,27.5,26.0,28.0,25.9,23.0,96,92,88,0.00,40.00,17,8,25,0.00
2013-2-11,29.0,22.1,4.0,25.0,15.4,0.0,89,75,62,0.00,40.00,10,4,20,0.00
2013-2-12,33.0,22.1,12.0,18.0,14.7,9.0,86,73,53,0.00,40.00,11,5,16,0.00
2013-2-13,38.0,28.3,15.0,32.0,23.2,12.0,97,82,60,0.00,40.00,8,2,11,0.00
2013-2-14,32.0,22.1,8.0,30.0,12.7,-4.0,97,70,36,0.00,40.00,7,2,17,0.00
2013-2-15,20.0,8.3,-2.0,1.0,-1.7,-8.0,79,63,40,0.00,40.00,7,2,14,0.00
2013-2-16,17.0,5.4,-7.0,3.0,-2.2,-13.0,81,71,55,0.00,40.00,4,1,6,0.00
2013-2-17,31.0,18.8,-5.0,21.0,10.9,-11.0,79,71,59,0.00,40.00,13,6,22,0.00
2013-2-18,30.0,18.9,6.0,25.0,11.8,-2.0,88,74,62,0.00,40.00,9,4,20,0.00
2013-2-19,9.0,3.5,-2.0,-2.0,-8.9,-13.0,70,55,42,0.00,40.00,9,5,21,0.00
2013-2-20,13.0,-0.4,-17.0,-2.0,-10.8,-24.0,71,61,44,0.00,40.00,7,1,8,0.00
2013-2-21,22.0,10.4,-10.0,16.0,0.9,-18.0,79,65,53,0.00,40.00,10,5,16,0.00
2013-2-22,27.0,23.2,20.0,21.0,18.5,16.0,90,82,70,0.00,40.00,13,5,17,0.00
2013-2-23,35.0,23.4,6.0,21.0,17.4,1.0,90,79,55,0.00,40.00,6,2,7,0.00
2013-2-24,32.0,14.0,-2.0,19.0,7.4,-8.0,84,75,57,0.00,40.00,6,1,8,0.00
2013-2-25,33.0,17.8,2.0,21.0,11.6,-2.0,87,77,57,0.00,40.00,4,1,8,0.00
2013-2-26,36.0,21.1,8.0,25.0,15.5,5.0,89,79,60,0.00,40.00,9,2,14,0.00
2013-2-27,41.0,27.6,14.0,23.0,18.0,10.0,87,69,45,0.00,40.00,7,2,17,0.00
2013-2-28,30.0,26.1,15.0,21.0,17.5,9.0,80,69,62,0.00,40.00,12,5,16,0.00
2013-3-1,29.0,20.0,4.0,14.0,10.7,-6.0,79,67,52,0.00,40.00,10,4,14,0.00
2013-3-2,28.0,13.1,-10.0,14.0,2.1,-17.0,77,62,41,0.00,40.00,5,2,8,0.00
2013-3-3,34.0,25.5,17.0,12.0,9.9,7.0,70,52,38,0.00,40.00,9,3,15,0.00
2013-3-4,26.0,23.8,22.0,21.0,17.0,7.0,92,76,46,0.00,40.00,8,4,19,0.00
2013-3-5,30.0,24.6,19.0,25.0,21.0,16.0,93,86,72,0.00,40.00,12,5,16,0.00
2013-3-6,28.0,18.6,-5.0,18.0,11.5,-11.0,87,73,55,0.00,40.00,6,2,12,0.00
2013-3-7,34.0,15.0,-8.0,18.0,5.2,-15.0,82,65,45,0.00,40.00,9,2,14,0.00
2013-3-8,37.0,24.3,8.0,27.0,17.5,5.0,87,75,58,0.00,40.00,7,2,10,0.00
2013-3-9,36.0,33.9,31.0,36.0,32.6,27.0,97,94,81,0.00,40.00,7,2,12,0.00
2013-3-10,34.0,29.6,27.0,32.0,22.9,19.0,93,77,68,0.00,40.00,18,9,25,0.00
2013-3-11,31.0,25.5,20.0,19.0,17.9,14.0,82,72,58,0.00,40.00,7,4,14,0.00
2013-3-12,31.0,23.2,17.0,16.0,11.9,7.0,76,62,38,0.00,40.00,9,4,20,0.00
2013-3-13,33.0,19.8,7.0,16.0,10.5,3.0,85,68,42,0.00,40.00,7,3,10,0.00
2013-3-14,42.0,29.5,23.0,25.0,22.4,16.0,92,75,48,0.00,40.00,7,3,9,0.00
2013-3-15,33.0,29.1,22.0,30.0,25.2,18.0,95,86,70,0.00,40.00,12,5,19,0.00
2013-3-16,23.0,17.0,6.0,18.0,6.4,-4.0,82,63,44,0.00,40.00,10,4,14,0.00
2013-3-17,27.0,11.2,-14.0,12.0,-1.5,-20.0,74,57,40,0.00,40.00,12,4,17,0.00
2013-3-18,29.0,21.0,11.0,28.0,14.1,1.0,95,74,59,0.00,40.00,14,9,26,0.00
2013-3-19,23.0,12.1,4.0,1.0,-2.5,-6.0,68,52,32,0.00,40.00,11,6,24,0.00
2013-3-20,22.0,11.4,3.0,1.0,-4.1,-8.0,61,49,36,0.00,40.00,9,4,21,0.00
2013-3-21,28.0,9.3,-13.0,7.0,-3.1,-20.0,72,58,38,0.00,40.00,7,2,11,0.00
2013-3-22,37.0,14.0,-10.0,14.0,1.3,-17.0,73,59,31,0.00,40.00,6,1,7,0.00
2013-3-23,39.0,23.0,1.0,21.0,10.4,-4.0,81,61,33,0.00,40.00,4,1,9,0.00
2013-3-24,34.0,29.1,24.0,23.0,19.8,18.0,89,69,53,0.00,40.00,12,4,17,0.00
2013-3-25,38.0,29.3,20.0,19.0,15.4,12.0,72,56,38,0.00,40.00,14,4,21,0.00
2013-3-26,42.0,28.0,17.0,19.0,15.5,12.0,80,61,31,0.00,40.00,5,2,10,0.00
2013-3-27,42.0,27.8,9.0,19.0,14.2,5.0,84,60,32,0.00,40.00,6,2,10,0.00
2013-3-28,43.0,28.7,9.0,25.0,16.8,5.0,84,63,37,0.00,40.00,11,2,14,0.00
2013-3-29,49.0,38.1,25.0,37.0,29.1,19.0,86,69,54,0.00,40.00,9,4,13,0.00
2013-3-30,51.0,42.1,33.0,39.0,35.2,-99.9,95,79,59,0.00,40.00,13,4,17,0.00
2013-3-31,37.0,32.0,20.0,30.0,20.6,9.0,91,65,34,0.00,40.00,10,5,23,0.00
2013-4-1,33.0,22.6,14.0,12.0,9.5,7.0,73,58,38,0.00,40.00,7,3,14,0.00
2013-4-2,35.0,24.2,10.0,16.0,11.6,7.0,86,61,34,0.00,40.00,6,2,11,0.00
2013-4-3,44.0,31.2,13.0,32.0,20.8,10.0,87,67,41,0.00,40.00,20,8,27,0.00
2013-4-4,45.0,39.0,28.0,32.0,26.5,19.0,86,62,39,0.00,40.00,14,4,24,0.00
2013-4-5,39.0,31.2,21.0,30.0,22.3,16.0,88,71,38,0.00,40.00,10,4,19,0.00
2013-4-6,46.0,38.1,34.0,36.0,32.0,30.0,89,78,58,0.00,40.00,9,4,19,0.00
2013-4-7,46.0,38.7,34.0,37.0,31.2,27.0,94,74,57,0.00,40.00,9,3,13,0.00
2013-4-8,42.0,38.8,36.0,39.0,36.2,34.0,97,90,80,0.00,40.00,11,5,17,0.00
2013-4-9,39.0,34.8,30.0,34.0,24.4,19.0,88,66,50,0.00,40.00,22,8,31,0.00
2013-4-10,40.0,36.1,33.0,25.0,20.6,14.0,64,53,39,0.00,40.00,17,9,26,0.00
2013-4-11,36.0,31.7,28.0,28.0,24.9,16.0,96,77,44,0.00,40.00,17,11,34,0.00
2013-4-12,37.0,30.7,27.0,28.0,25.5,23.0,93,81,55,0.00,40.00,12,4,18,0.00
2013-4-13,37.0,30.1,21.0,27.0,22.3,16.0,94,74,45,0.00,40.00,6,2,10,0.00
2013-4-14,34.0,29.8,20.0,32.0,24.8,16.0,95,82,63,0.00,40.00,19,8,31,0.00
2013-4-15,37.0,35.0,32.0,34.0,28.3,27.0,96,77,69,0.00,40.00,18,11,28,0.00
2013-4-16,44.0,36.2,29.0,28.0,25.4,23.0,84,65,43,0.00,40.00,7,4,17,0.00
2013-4-17,39.0,34.9,28.0,32.0,28.0,25.0,97,76,66,0.00,40.00,12,6,19,0.00
2013-4-18,33.0,31.4,30.0,32.0,30.2,28.0,98,96,87,0.00,40.00,12,7,24,0.00
2013-4-19,40.0,32.7,22.0,30.0,21.1,9.0,98,65,35,0.00,40.00,9,5,23,0.00
2013-4-20,39.0,28.5,13.0,19.0,12.4,3.0,88,54,24,0.00,40.00,9,2,14,0.00
2013-4-21,45.0,37.6,30.0,43.0,31.7,14.0,97,80,48,0.00,40.00,17,6,27,0.00
2013-4-22,40.0,34.0,31.0,34.0,28.6,21.0,98,82,49,0.00,40.00,16,4,21,0.00
2013-4-23,41.0,32.5,23.0,30.0,21.0,14.0,98,65,35,0.00,40.00,7,3,16,0.00
2013-4-24,50.0,36.0,24.0,32.0,26.2,19.0,90,69,39,0.00,40.00,17,6,28,0.00
2013-4-25,50.0,39.0,29.0,30.0,26.9,21.0,87,64,35,0.00,40.00,11,5,17,0.00
2013-4-26,70.0,53.4,39.0,41.0,34.5,27.0,81,52,22,0.00,40.00,9,3,16,0.00
2013-4-27,73.0,55.5,33.0,41.0,33.6,27.0,94,51,17,0.00,40.00,11,4,16,0.00
2013-4-28,76.0,62.2,50.0,50.0,45.4,43.0,80,55,32,0.00,40.00,21,8,30,0.00
2013-4-29,74.0,58.0,38.0,46.0,35.6,23.0,87,48,17,0.00,40.00,13,3,18,0.00
2013-4-30,69.0,61.4,52.0,57.0,43.1,27.0,82,53,23,0.00,40.00,17,6,26,0.00
2013-5-1,52.0,41.7,36.0,36.0,25.6,21.0,66,53,40,0.00,40.00,8,4,16,0.00
2013-5-2,44.0,37.3,31.0,27.0,23.0,21.0,69,56,41,0.00,40.00,16,6,24,0.00
2013-5-3,43.0,35.9,30.0,34.0,25.4,21.0,89,66,47,0.00,40.00,19,7,29,0.00
2013-5-4,42.0,37.3,33.0,39.0,34.3,30.0,94,89,84,0.00,40.00,13,8,19,0.00
2013-5-5,67.0,48.5,37.0,48.0,40.9,36.0,93,76,47,0.00,40.00,9,3,12,0.00
2013-5-6,74.0,56.6,36.0,52.0,43.7,36.0,96,66,36,0.00,40.00,7,2,11,0.00
2013-5-7,78.0,61.8,45.0,50.0,45.4,39.0,94,60,26,0.00,40.00,12,3,19,0.00
2013-5-8,73.0,60.7,52.0,57.0,50.4,45.0,91,70,39,0.00,40.00,12,4,20,0.00
2013-5-9,58.0,52.1,43.0,54.0,46.3,34.0,95,80,60,0.00,40.00,16,7,24,0.00
2013-5-10,67.0,49.8,35.0,43.0,25.1,-99.9,75,44,17,0.00,40.00,12,5,32,0.00
2013-5-11,52.0,44.4,34.0,37.0,23.6,-99.9,73,47,28,0.00,40.00,12,5,28,0.00
2013-5-12,60.0,43.6,27.0,28.0,19.5,10.0,84,44,14,0.00,40.00,7,2,19,0.00
2013-5-13,74.0,52.9,32.0,43.0,32.6,21.0,83,48,27,0.00,40.00,22,5,29,0.00
2013-5-14,95.0,67.0,42.0,50.0,42.2,25.0,91,49,11,0.00,40.00,14,4,29,0.00
2013-5-15,84.0,66.4,46.0,50.0,40.9,32.0,86,44,17,0.00,40.00,10,3,27,0.00
2013-5-16,80.0,62.1,46.0,45.0,22.2,-99.9,85,41,19,0.00,40.00,11,5,19,0.00
2013-5-17,66.0,59.3,55.0,55.0,40.1,-99.9,90,61,22,0.00,40.00,9,5,17,0.00
2013-5-18,77.0,64.3,55.0,64.0,59.4,54.0,97,84,65,0.00,40.00,17,6,22,0.00
2013-5-19,80.0,68.5,61.0,66.0,63.5,61.0,98,84,58,0.00,40.00,13,5,21,0.00
2013-5-20,72.0,61.2,52.0,63.0,56.4,50.0,98,85,62,0.00,40.00,17,6,26,0.00
2013-5-21,52.0,48.5,46.0,50.0,46.6,45.0,96,93,88,0.00,40.00,12,6,19,0.00
2013-5-22,53.0,47.4,43.0,48.0,44.3,41.0,95,88,73,0.00,40.00,17,9,29,0.00
2013-5-23,65.0,52.0,42.0,43.0,35.9,30.0,95,57,28,0.00,40.00,13,5,18,0.00
2013-5-24,67.0,53.5,39.0,52.0,36.5,28.0,94,56,25,0.00,40.00,12,4,18,0.00
2013-5-25,65.0,57.5,53.0,52.0,47.8,45.0,94,71,49,0.00,40.00,14,6,24,0.00
2013-5-26,61.0,56.4,51.0,48.0,42.0,34.0,79,59,37,0.00,40.00,12,4,22,0.00
2013-5-27,61.0,58.1,55.0,54.0,49.2,43.0,83,71,61,0.00,40.00,7,4,16,0.00
2013-5-28,62.0,57.0,53.0,55.0,53.5,52.0,96,87,75,0.00,40.00,5,2,11,0.00
2013-5-29,75.0,65.3,55.0,66.0,59.5,54.0,95,81,64,0.00,40.00,12,4,15,0.00
2013-5-30,74.0,67.6,64.0,66.0,62.7,59.0,95,84,63,0.00,40.00,17,7,27,0.00
2013-5-31,71.0,65.0,55.0,63.0,55.1,50.0,95,71,49,0.00,40.00,21,8,31,0.00
2013-6-1,68.0,56.3,49.0,57.0,50.1,43.0,97,79,65,0.00,40.00,12,4,21,0.00
2013-6-2,68.0,55.7,45.0,46.0,40.8,36.0,86,59,33,0.00,40.00,10,3,16,0.00
2013-6-3,67.0,57.0,42.0,48.0,42.4,37.0,95,62,33,0.00,40.00,5,2,9,0.00
2013-6-4,60.0,55.8,52.0,55.0,48.9,41.0,94,78,52,0.00,40.00,10,4,16,0.00
2013-6-5,60.0,54.7,51.0,55.0,52.9,48.0,97,92,82,0.00,40.00,9,4,14,0.00
2013-6-6,57.0,52.9,49.0,50.0,48.9,48.0,96,86,74,0.00,40.00,9,5,16,0.00
2013-6-7,63.0,55.3,46.0,54.0,49.6,45.0,96,81,63,0.00,40.00,4,1,9,0.00
2013-6-8,70.0,58.9,50.0,55.0,51.4,48.0,97,78,50,0.00,40.00,9,2,15,0.00
2013-8-6,80.0,80.0,80.0,66.0,65.4,63.0,80,69,60,0.00,40.00,0,-999,0,0.00
2013-8-7,76.0,67.7,54.0,55.0,51.3,46.0,96,58,37,0.00,40.00,8,2,13,0.00
2013-8-8,79.0,64.4,51.0,61.0,55.9,50.0,97,76,46,0.00,40.00,7,2,14,0.00
2013-8-9,74.0,65.4,48.0,57.0,50.5,46.0,97,61,41,0.00,40.00,6,2,17,0.00
2013-8-10,73.0,63.8,52.0,57.0,53.3,48.0,96,71,42,0.00,40.00,4,1,7,0.00
2013-8-11,80.0,67.3,54.0,61.0,56.5,52.0,97,71,41,0.00,40.00,6,1,10,0.00
2013-8-12,79.0,65.2,52.0,59.0,54.3,50.0,97,72,37,0.00,40.00,7,2,13,0.00
2013-9-28,65.0,65.0,65.0,63.0,63.0,63.0,90,90,90,0.00,40.00,11,11,17,0.00
2013-10-27,28.0,28.0,28.0,25.0,25.0,25.0,87,87,87,0.00,40.00,6,6,7,0.00
2013-10-28,-200.0,0.0,200.0,-99.9,-99.9,-99.9,76,76,76,0.00,40.00,2,2,6,0.00
2013-10-30,44.0,44.0,44.0,-99.9,-99.9,-99.9,101,101,100,0.00,40.00,0,0,1,0.00
2013-11-2,-200.0,0.0,200.0,-99.9,-99.9,-99.9,0,0,100,0.00,40.00,0,0,1,0.00
2013-11-8,21.0,20.5,20.0,19.0,18.5,18.0,93,92,91,0.00,40.00,0,0,1,0.00
2013-11-9,-200.0,0.0,200.0,-99.9,-99.9,-99.9,0,0,100,0.00,40.00,4,4,13,0.00
2013-11-10,41.0,38.0,36.0,30.0,28.0,27.0,78,67,56,0.00,40.00,8,6,15,0.00
2013-11-11,21.0,21.0,21.0,10.0,10.0,10.0,64,64,64,0.00,40.00,6,6,15,0.00
2013-11-14,32.0,32.0,32.0,30.0,30.0,30.0,92,92,92,0.00,40.00,0,0,1,0.00